sensor_id;sensor_type;location;lat;lon;timestamp;temperature;humidity
48264;DHT22;34086;51.076;13.722;2023-05-16T00:00:18;12.80;99.90
48264;DHT22;34086;51.076;13.722;2023-05-16T00:01:19;12.80;99.90
48264;DHT22;34086;51.076;13.722;2023-05-16T00:02:19;12.80;99.90
48264;DHT22;34086;51.076;13.722;2023-05-16T00:03:20;12.80;99.90
48264;DHT22;34086;51.076;13.722;2023-05-16T00:04:21;12.80;99.90
48264;DHT22;34086;51.076;13.722;2023-05-16T00:05:23;12.70;99.90
48264;DHT22;34086;51.076;13.722;2023-05-16T00:06:23;12.70;99.90
48264;DHT22;34086;51.076;13.722;2023-05-16T00:07:24;12.70;99.90
48264;DHT22;34086;51.076;13.722;2023-05-16T00:08:25;12.70;99.90
48264;DHT22;34086;51.076;13.722;2023-05-16T00:09:26;12.70;99.90
48264;DHT22;34086;51.076;13.722;2023-05-16T00:10:26;12.70;99.90
48264;DHT22;34086;51.076;13.722;2023-05-16T00:11:27;12.70;99.90
48264;DHT22;34086;51.076;13.722;2023-05-16T00:12:28;12.70;99.90
48264;DHT22;34086;51.076;13.722;2023-05-16T00:13:29;12.70;99.90
48264;DHT22;34086;51.076;13.722;2023-05-16T00:14:30;12.60;99.90
48264;DHT22;34086;51.076;13.722;2023-05-16T00:15:30;12.70;99.90
48264;DHT22;34086;51.076;13.722;2023-05-16T00:16:31;12.60;99.90
48264;DHT22;34086;51.076;13.722;2023-05-16T00:17:32;12.60;99.90
48264;DHT22;34086;51.076;13.722;2023-05-16T00:18:32;12.50;99.90
48264;DHT22;34086;51.076;13.722;2023-05-16T00:19:37;12.50;99.90
48264;DHT22;34086;51.076;13.722;2023-05-16T00:20:41;12.50;99.90
48264;DHT22;34086;51.076;13.722;2023-05-16T00:21:42;12.50;99.90
48264;DHT22;34086;51.076;13.722;2023-05-16T00:22:44;12.50;99.90
48264;DHT22;34086;51.076;13.722;2023-05-16T00:23:45;12.50;99.90
48264;DHT22;34086;51.076;13.722;2023-05-16T00:24:46;12.40;99.90
48264;DHT22;34086;51.076;13.722;2023-05-16T00:25:47;12.40;99.90
48264;DHT22;34086;51.076;13.722;2023-05-16T00:26:48;12.40;99.90
48264;DHT22;34086;51.076;13.722;2023-05-16T00:27:48;12.40;99.90
48264;DHT22;34086;51.076;13.722;2023-05-16T00:28:49;12.40;99.90
48264;DHT22;34086;51.076;13.722;2023-05-16T00:29:49;12.40;99.90
48264;DHT22;34086;51.076;13.722;2023-05-16T00:30:51;12.40;99.90
48264;DHT22;34086;51.076;13.722;2023-05-16T00:31:52;12.40;99.90
48264;DHT22;34086;51.076;13.722;2023-05-16T00:32:54;12.30;99.90
48264;DHT22;34086;51.076;13.722;2023-05-16T00:33:55;12.30;99.90
48264;DHT22;34086;51.076;13.722;2023-05-16T00:34:55;12.30;99.90
48264;DHT22;34086;51.076;13.722;2023-05-16T00:35:56;12.30;99.90
48264;DHT22;34086;51.076;13.722;2023-05-16T00:36:56;12.30;99.90
48264;DHT22;34086;51.076;13.722;2023-05-16T00:37:57;12.30;99.90
48264;DHT22;34086;51.076;13.722;2023-05-16T00:38:57;12.30;99.90
48264;DHT22;34086;51.076;13.722;2023-05-16T00:39:58;12.30;99.90
48264;DHT22;34086;51.076;13.722;2023-05-16T00:40:58;12.30;99.90
48264;DHT22;34086;51.076;13.722;2023-05-16T00:41:59;12.30;99.90
48264;DHT22;34086;51.076;13.722;2023-05-16T00:43:00;12.30;99.90
48264;DHT22;34086;51.076;13.722;2023-05-16T00:44:01;12.30;99.90
48264;DHT22;34086;51.076;13.722;2023-05-16T00:45:01;12.30;99.90
48264;DHT22;34086;51.076;13.722;2023-05-16T00:46:03;12.30;99.90
48264;DHT22;34086;51.076;13.722;2023-05-16T00:47:04;12.30;99.90
48264;DHT22;34086;51.076;13.722;2023-05-16T00:48:04;12.30;99.90
48264;DHT22;34086;51.076;13.722;2023-05-16T00:49:05;12.30;99.90
48264;DHT22;34086;51.076;13.722;2023-05-16T00:50:06;12.30;99.90
48264;DHT22;34086;51.076;13.722;2023-05-16T00:51:06;12.30;99.90
48264;DHT22;34086;51.076;13.722;2023-05-16T00:52:08;12.30;99.90
48264;DHT22;34086;51.076;13.722;2023-05-16T00:53:09;12.30;99.90
48264;DHT22;34086;51.076;13.722;2023-05-16T00:54:11;12.30;99.90
48264;DHT22;34086;51.076;13.722;2023-05-16T00:55:12;12.30;99.90
48264;DHT22;34086;51.076;13.722;2023-05-16T00:56:14;12.30;99.90
48264;DHT22;34086;51.076;13.722;2023-05-16T00:57:17;12.30;99.90
48264;DHT22;34086;51.076;13.722;2023-05-16T00:58:18;12.30;99.90
48264;DHT22;34086;51.076;13.722;2023-05-16T00:59:21;12.30;99.90
48264;DHT22;34086;51.076;13.722;2023-05-16T01:00:22;12.30;99.90
48264;DHT22;34086;51.076;13.722;2023-05-16T01:01:24;12.30;99.90
48264;DHT22;34086;51.076;13.722;2023-05-16T01:02:27;12.40;99.90
48264;DHT22;34086;51.076;13.722;2023-05-16T01:03:29;12.30;99.90
48264;DHT22;34086;51.076;13.722;2023-05-16T01:04:30;12.30;99.90
48264;DHT22;34086;51.076;13.722;2023-05-16T01:05:31;12.30;99.90
48264;DHT22;34086;51.076;13.722;2023-05-16T01:06:33;12.30;99.90
48264;DHT22;34086;51.076;13.722;2023-05-16T01:07:34;12.30;99.90
48264;DHT22;34086;51.076;13.722;2023-05-16T01:08:35;12.30;99.90
48264;DHT22;34086;51.076;13.722;2023-05-16T01:09:36;12.30;99.90
48264;DHT22;34086;51.076;13.722;2023-05-16T01:11:23;12.30;99.90
48264;DHT22;34086;51.076;13.722;2023-05-16T01:12:46;12.30;99.90
48264;DHT22;34086;51.076;13.722;2023-05-16T01:15:19;12.20;99.90
48264;DHT22;34086;51.076;13.722;2023-05-16T01:19:05;12.20;99.90
48264;DHT22;34086;51.076;13.722;2023-05-16T01:20:29;12.20;99.90
48264;DHT22;34086;51.076;13.722;2023-05-16T01:22:02;12.10;99.90
48264;DHT22;34086;51.076;13.722;2023-05-16T01:23:29;12.10;99.90
48264;DHT22;34086;51.076;13.722;2023-05-16T01:24:43;12.20;99.90
48264;DHT22;34086;51.076;13.722;2023-05-16T01:25:55;12.10;99.90
48264;DHT22;34086;51.076;13.722;2023-05-16T01:26:58;12.10;99.90
48264;DHT22;34086;51.076;13.722;2023-05-16T01:28:01;12.20;99.90
48264;DHT22;34086;51.076;13.722;2023-05-16T01:29:02;12.20;99.90
48264;DHT22;34086;51.076;13.722;2023-05-16T01:30:14;12.20;99.90
48264;DHT22;34086;51.076;13.722;2023-05-16T01:31:16;12.20;99.90
48264;DHT22;34086;51.076;13.722;2023-05-16T01:32:16;12.20;99.90
48264;DHT22;34086;51.076;13.722;2023-05-16T01:33:17;12.10;99.90
48264;DHT22;34086;51.076;13.722;2023-05-16T01:34:18;12.10;99.90
48264;DHT22;34086;51.076;13.722;2023-05-16T01:35:19;12.10;99.90
48264;DHT22;34086;51.076;13.722;2023-05-16T01:36:57;12.10;99.90
48264;DHT22;34086;51.076;13.722;2023-05-16T01:38:17;12.10;99.90
48264;DHT22;34086;51.076;13.722;2023-05-16T01:39:54;12.20;99.90
48264;DHT22;34086;51.076;13.722;2023-05-16T01:41:23;12.20;99.90
48264;DHT22;34086;51.076;13.722;2023-05-16T01:42:26;12.20;99.90
48264;DHT22;34086;51.076;13.722;2023-05-16T01:43:42;12.10;99.90
48264;DHT22;34086;51.076;13.722;2023-05-16T01:46:06;12.10;99.90
48264;DHT22;34086;51.076;13.722;2023-05-16T01:47:12;12.10;99.90
48264;DHT22;34086;51.076;13.722;2023-05-16T01:48:17;12.10;99.90
48264;DHT22;34086;51.076;13.722;2023-05-16T01:49:25;12.10;99.90
48264;DHT22;34086;51.076;13.722;2023-05-16T01:50:31;12.10;99.90
48264;DHT22;34086;51.076;13.722;2023-05-16T01:51:36;12.10;99.90
48264;DHT22;34086;51.076;13.722;2023-05-16T01:52:57;12.10;99.90
48264;DHT22;34086;51.076;13.722;2023-05-16T01:54:05;12.10;99.90
48264;DHT22;34086;51.076;13.722;2023-05-16T01:55:21;12.10;99.90
48264;DHT22;34086;51.076;13.722;2023-05-16T01:56:23;12.00;99.90
48264;DHT22;34086;51.076;13.722;2023-05-16T01:57:26;12.00;99.90
48264;DHT22;34086;51.076;13.722;2023-05-16T01:58:30;12.00;99.90
48264;DHT22;34086;51.076;13.722;2023-05-16T01:59:33;12.00;99.90
48264;DHT22;34086;51.076;13.722;2023-05-16T02:00:34;11.90;99.90
48264;DHT22;34086;51.076;13.722;2023-05-16T02:01:34;11.90;99.90
48264;DHT22;34086;51.076;13.722;2023-05-16T02:02:35;11.90;99.90
48264;DHT22;34086;51.076;13.722;2023-05-16T02:03:35;11.80;99.90
48264;DHT22;34086;51.076;13.722;2023-05-16T02:04:37;11.80;99.90
48264;DHT22;34086;51.076;13.722;2023-05-16T02:05:37;11.70;99.90
48264;DHT22;34086;51.076;13.722;2023-05-16T02:06:38;11.70;99.90
48264;DHT22;34086;51.076;13.722;2023-05-16T02:07:39;11.70;99.90
48264;DHT22;34086;51.076;13.722;2023-05-16T02:08:40;11.70;99.90
48264;DHT22;34086;51.076;13.722;2023-05-16T02:09:41;11.70;99.90
48264;DHT22;34086;51.076;13.722;2023-05-16T02:10:42;11.70;99.90
48264;DHT22;34086;51.076;13.722;2023-05-16T02:11:42;11.70;99.90
48264;DHT22;34086;51.076;13.722;2023-05-16T02:12:43;11.60;99.90
48264;DHT22;34086;51.076;13.722;2023-05-16T02:13:44;11.60;99.90
48264;DHT22;34086;51.076;13.722;2023-05-16T02:14:45;11.60;99.90
48264;DHT22;34086;51.076;13.722;2023-05-16T02:15:45;11.60;99.90
48264;DHT22;34086;51.076;13.722;2023-05-16T02:16:47;11.60;99.90
48264;DHT22;34086;51.076;13.722;2023-05-16T02:17:48;11.60;99.90
48264;DHT22;34086;51.076;13.722;2023-05-16T02:18:49;11.50;99.90
48264;DHT22;34086;51.076;13.722;2023-05-16T02:19:50;11.50;99.90
48264;DHT22;34086;51.076;13.722;2023-05-16T02:20:51;11.50;99.90
48264;DHT22;34086;51.076;13.722;2023-05-16T02:21:51;11.50;99.90
48264;DHT22;34086;51.076;13.722;2023-05-16T02:22:52;11.50;99.90
48264;DHT22;34086;51.076;13.722;2023-05-16T02:23:52;11.60;99.90
48264;DHT22;34086;51.076;13.722;2023-05-16T02:24:53;11.50;99.90
48264;DHT22;34086;51.076;13.722;2023-05-16T02:25:53;11.60;99.90
48264;DHT22;34086;51.076;13.722;2023-05-16T02:26:56;11.60;99.90
48264;DHT22;34086;51.076;13.722;2023-05-16T02:27:57;11.60;99.90
48264;DHT22;34086;51.076;13.722;2023-05-16T02:28:57;11.70;99.90
48264;DHT22;34086;51.076;13.722;2023-05-16T02:29:58;11.70;99.90
48264;DHT22;34086;51.076;13.722;2023-05-16T02:30:59;11.70;99.90
48264;DHT22;34086;51.076;13.722;2023-05-16T02:32:00;11.70;99.90
48264;DHT22;34086;51.076;13.722;2023-05-16T02:33:01;11.80;99.90
48264;DHT22;34086;51.076;13.722;2023-05-16T02:34:01;11.80;99.90
48264;DHT22;34086;51.076;13.722;2023-05-16T02:35:03;11.80;99.90
48264;DHT22;34086;51.076;13.722;2023-05-16T02:36:04;11.80;99.90
48264;DHT22;34086;51.076;13.722;2023-05-16T02:37:04;11.80;99.90
48264;DHT22;34086;51.076;13.722;2023-05-16T02:38:05;11.80;99.90
48264;DHT22;34086;51.076;13.722;2023-05-16T02:39:06;11.80;99.90
48264;DHT22;34086;51.076;13.722;2023-05-16T02:40:09;11.80;99.90
48264;DHT22;34086;51.076;13.722;2023-05-16T02:41:10;11.80;99.90
48264;DHT22;34086;51.076;13.722;2023-05-16T02:42:11;11.80;99.90
48264;DHT22;34086;51.076;13.722;2023-05-16T02:43:12;11.80;99.90
48264;DHT22;34086;51.076;13.722;2023-05-16T02:44:13;11.90;99.90
48264;DHT22;34086;51.076;13.722;2023-05-16T02:45:15;11.90;99.90
48264;DHT22;34086;51.076;13.722;2023-05-16T02:46:20;11.90;99.90
48264;DHT22;34086;51.076;13.722;2023-05-16T02:47:21;11.90;99.90
48264;DHT22;34086;51.076;13.722;2023-05-16T02:48:21;11.90;99.90
48264;DHT22;34086;51.076;13.722;2023-05-16T02:49:22;11.90;99.90
48264;DHT22;34086;51.076;13.722;2023-05-16T02:50:22;12.00;99.90
48264;DHT22;34086;51.076;13.722;2023-05-16T02:51:25;12.00;99.90
48264;DHT22;34086;51.076;13.722;2023-05-16T02:52:26;12.00;99.90
48264;DHT22;34086;51.076;13.722;2023-05-16T02:53:26;12.00;99.90
48264;DHT22;34086;51.076;13.722;2023-05-16T02:54:27;12.00;99.90
48264;DHT22;34086;51.076;13.722;2023-05-16T02:55:28;12.00;99.90
48264;DHT22;34086;51.076;13.722;2023-05-16T02:56:28;12.10;99.90
48264;DHT22;34086;51.076;13.722;2023-05-16T02:57:29;12.10;99.90
48264;DHT22;34086;51.076;13.722;2023-05-16T02:58:29;12.10;99.90
48264;DHT22;34086;51.076;13.722;2023-05-16T02:59:31;12.10;99.90
48264;DHT22;34086;51.076;13.722;2023-05-16T03:00:31;12.10;99.90
48264;DHT22;34086;51.076;13.722;2023-05-16T03:01:32;12.20;99.90
48264;DHT22;34086;51.076;13.722;2023-05-16T03:02:33;12.20;99.90
48264;DHT22;34086;51.076;13.722;2023-05-16T03:03:35;12.20;99.90
48264;DHT22;34086;51.076;13.722;2023-05-16T03:04:36;12.20;99.90
48264;DHT22;34086;51.076;13.722;2023-05-16T03:05:36;12.20;99.90
48264;DHT22;34086;51.076;13.722;2023-05-16T03:06:37;12.20;99.90
48264;DHT22;34086;51.076;13.722;2023-05-16T03:07:38;12.20;99.90
48264;DHT22;34086;51.076;13.722;2023-05-16T03:08:39;12.20;99.90
48264;DHT22;34086;51.076;13.722;2023-05-16T03:09:39;12.20;99.90
48264;DHT22;34086;51.076;13.722;2023-05-16T03:10:41;12.20;99.90
48264;DHT22;34086;51.076;13.722;2023-05-16T03:11:41;12.20;99.90
48264;DHT22;34086;51.076;13.722;2023-05-16T03:12:42;12.20;99.90
48264;DHT22;34086;51.076;13.722;2023-05-16T03:13:43;12.20;99.90
48264;DHT22;34086;51.076;13.722;2023-05-16T03:14:43;12.20;99.90
48264;DHT22;34086;51.076;13.722;2023-05-16T03:15:45;12.20;99.90
48264;DHT22;34086;51.076;13.722;2023-05-16T03:16:45;12.20;99.90
48264;DHT22;34086;51.076;13.722;2023-05-16T03:17:46;12.20;99.90
48264;DHT22;34086;51.076;13.722;2023-05-16T03:18:47;12.20;99.90
48264;DHT22;34086;51.076;13.722;2023-05-16T03:19:47;12.30;99.90
48264;DHT22;34086;51.076;13.722;2023-05-16T03:20:48;12.30;99.90
48264;DHT22;34086;51.076;13.722;2023-05-16T03:21:49;12.30;99.90
48264;DHT22;34086;51.076;13.722;2023-05-16T03:22:50;12.30;99.90
48264;DHT22;34086;51.076;13.722;2023-05-16T03:23:50;12.30;99.90
48264;DHT22;34086;51.076;13.722;2023-05-16T03:24:51;12.30;99.90
48264;DHT22;34086;51.076;13.722;2023-05-16T03:25:51;12.30;99.90
48264;DHT22;34086;51.076;13.722;2023-05-16T03:26:54;12.30;99.90
48264;DHT22;34086;51.076;13.722;2023-05-16T03:27:55;12.30;99.90
48264;DHT22;34086;51.076;13.722;2023-05-16T03:28:56;12.30;99.90
48264;DHT22;34086;51.076;13.722;2023-05-16T03:29:56;12.40;99.90
48264;DHT22;34086;51.076;13.722;2023-05-16T03:30:57;12.40;99.90
48264;DHT22;34086;51.076;13.722;2023-05-16T03:31:58;12.40;99.90
48264;DHT22;34086;51.076;13.722;2023-05-16T03:32:58;12.40;99.90
48264;DHT22;34086;51.076;13.722;2023-05-16T03:33:59;12.40;99.90
48264;DHT22;34086;51.076;13.722;2023-05-16T03:35:00;12.40;99.90
48264;DHT22;34086;51.076;13.722;2023-05-16T03:36:01;12.50;99.90
48264;DHT22;34086;51.076;13.722;2023-05-16T03:37:01;12.50;99.90
48264;DHT22;34086;51.076;13.722;2023-05-16T03:38:02;12.50;99.90
48264;DHT22;34086;51.076;13.722;2023-05-16T03:39:03;12.50;99.90
48264;DHT22;34086;51.076;13.722;2023-05-16T03:40:04;12.50;99.90
48264;DHT22;34086;51.076;13.722;2023-05-16T03:41:05;12.50;99.90
48264;DHT22;34086;51.076;13.722;2023-05-16T03:42:06;12.50;99.90
48264;DHT22;34086;51.076;13.722;2023-05-16T03:43:06;12.50;99.90
48264;DHT22;34086;51.076;13.722;2023-05-16T03:44:07;12.50;99.90
48264;DHT22;34086;51.076;13.722;2023-05-16T03:45:08;12.50;99.90
48264;DHT22;34086;51.076;13.722;2023-05-16T03:46:09;12.50;99.90
48264;DHT22;34086;51.076;13.722;2023-05-16T03:47:09;12.60;99.90
48264;DHT22;34086;51.076;13.722;2023-05-16T03:48:10;12.50;99.90
48264;DHT22;34086;51.076;13.722;2023-05-16T03:49:10;12.60;99.90
48264;DHT22;34086;51.076;13.722;2023-05-16T03:50:11;12.50;99.90
48264;DHT22;34086;51.076;13.722;2023-05-16T03:51:12;12.60;99.90
48264;DHT22;34086;51.076;13.722;2023-05-16T03:52:13;12.60;99.90
48264;DHT22;34086;51.076;13.722;2023-05-16T03:53:13;12.60;99.90
48264;DHT22;34086;51.076;13.722;2023-05-16T03:54:14;12.70;99.90
48264;DHT22;34086;51.076;13.722;2023-05-16T03:55:15;12.70;99.90
48264;DHT22;34086;51.076;13.722;2023-05-16T03:56:16;12.70;99.90
48264;DHT22;34086;51.076;13.722;2023-05-16T03:57:17;12.70;99.90
48264;DHT22;34086;51.076;13.722;2023-05-16T03:58:17;12.80;99.90
48264;DHT22;34086;51.076;13.722;2023-05-16T03:59:18;12.80;99.90
48264;DHT22;34086;51.076;13.722;2023-05-16T04:00:18;12.80;99.90
48264;DHT22;34086;51.076;13.722;2023-05-16T04:01:19;12.80;99.90
48264;DHT22;34086;51.076;13.722;2023-05-16T04:02:20;12.80;99.90
48264;DHT22;34086;51.076;13.722;2023-05-16T04:03:20;12.80;99.90
48264;DHT22;34086;51.076;13.722;2023-05-16T04:04:27;12.90;99.90
48264;DHT22;34086;51.076;13.722;2023-05-16T04:05:28;12.80;99.90
48264;DHT22;34086;51.076;13.722;2023-05-16T04:06:29;12.80;99.90
48264;DHT22;34086;51.076;13.722;2023-05-16T04:07:30;12.80;99.90
48264;DHT22;34086;51.076;13.722;2023-05-16T04:08:30;12.80;99.90
48264;DHT22;34086;51.076;13.722;2023-05-16T04:09:31;12.90;99.90
48264;DHT22;34086;51.076;13.722;2023-05-16T04:10:32;12.90;99.90
48264;DHT22;34086;51.076;13.722;2023-05-16T04:11:32;12.90;99.90
48264;DHT22;34086;51.076;13.722;2023-05-16T04:12:33;12.90;99.90
48264;DHT22;34086;51.076;13.722;2023-05-16T04:13:34;13.00;99.90
48264;DHT22;34086;51.076;13.722;2023-05-16T04:14:34;13.00;99.90
48264;DHT22;34086;51.076;13.722;2023-05-16T04:15:35;13.00;99.90
48264;DHT22;34086;51.076;13.722;2023-05-16T04:16:35;12.90;99.90
48264;DHT22;34086;51.076;13.722;2023-05-16T04:17:36;13.00;99.90
48264;DHT22;34086;51.076;13.722;2023-05-16T04:18:37;12.90;99.90
48264;DHT22;34086;51.076;13.722;2023-05-16T04:19:37;12.90;99.90
48264;DHT22;34086;51.076;13.722;2023-05-16T04:20:38;12.90;99.90
48264;DHT22;34086;51.076;13.722;2023-05-16T04:21:39;12.90;99.90
48264;DHT22;34086;51.076;13.722;2023-05-16T04:22:39;12.90;99.90
48264;DHT22;34086;51.076;13.722;2023-05-16T04:23:41;12.80;99.90
48264;DHT22;34086;51.076;13.722;2023-05-16T04:24:41;12.80;99.90
48264;DHT22;34086;51.076;13.722;2023-05-16T04:25:42;12.90;99.90
48264;DHT22;34086;51.076;13.722;2023-05-16T04:26:43;12.90;99.90
48264;DHT22;34086;51.076;13.722;2023-05-16T04:27:44;12.90;99.90
48264;DHT22;34086;51.076;13.722;2023-05-16T04:28:45;12.80;99.90
48264;DHT22;34086;51.076;13.722;2023-05-16T04:29:45;12.80;99.90
48264;DHT22;34086;51.076;13.722;2023-05-16T04:30:46;12.80;99.90
48264;DHT22;34086;51.076;13.722;2023-05-16T04:31:46;12.80;99.90
48264;DHT22;34086;51.076;13.722;2023-05-16T04:32:47;12.80;99.90
48264;DHT22;34086;51.076;13.722;2023-05-16T04:33:48;12.80;99.90
48264;DHT22;34086;51.076;13.722;2023-05-16T04:34:49;12.80;99.90
48264;DHT22;34086;51.076;13.722;2023-05-16T04:35:52;12.80;99.90
48264;DHT22;34086;51.076;13.722;2023-05-16T04:36:54;12.70;99.90
48264;DHT22;34086;51.076;13.722;2023-05-16T04:37:54;12.70;99.90
48264;DHT22;34086;51.076;13.722;2023-05-16T04:38:55;12.70;99.90
48264;DHT22;34086;51.076;13.722;2023-05-16T04:39:56;12.70;99.90
48264;DHT22;34086;51.076;13.722;2023-05-16T04:40:58;12.60;99.90
48264;DHT22;34086;51.076;13.722;2023-05-16T04:41:58;12.60;99.90
48264;DHT22;34086;51.076;13.722;2023-05-16T04:42:59;12.70;99.90
48264;DHT22;34086;51.076;13.722;2023-05-16T04:44:03;12.70;99.90
48264;DHT22;34086;51.076;13.722;2023-05-16T04:45:04;12.80;99.90
48264;DHT22;34086;51.076;13.722;2023-05-16T04:46:06;12.80;99.90
48264;DHT22;34086;51.076;13.722;2023-05-16T04:47:09;12.80;99.90
48264;DHT22;34086;51.076;13.722;2023-05-16T04:48:10;12.80;99.90
48264;DHT22;34086;51.076;13.722;2023-05-16T04:49:11;12.70;99.90
48264;DHT22;34086;51.076;13.722;2023-05-16T04:50:12;12.70;99.90
48264;DHT22;34086;51.076;13.722;2023-05-16T04:51:12;12.70;99.90
48264;DHT22;34086;51.076;13.722;2023-05-16T04:52:13;12.70;99.90
48264;DHT22;34086;51.076;13.722;2023-05-16T04:53:13;12.70;99.90
48264;DHT22;34086;51.076;13.722;2023-05-16T04:54:15;12.70;99.90
48264;DHT22;34086;51.076;13.722;2023-05-16T04:55:15;12.60;99.90
48264;DHT22;34086;51.076;13.722;2023-05-16T04:56:16;12.60;99.90
48264;DHT22;34086;51.076;13.722;2023-05-16T04:57:17;12.70;99.90
48264;DHT22;34086;51.076;13.722;2023-05-16T04:58:17;12.70;99.90
48264;DHT22;34086;51.076;13.722;2023-05-16T04:59:18;12.60;99.90
48264;DHT22;34086;51.076;13.722;2023-05-16T05:00:19;12.60;99.90
48264;DHT22;34086;51.076;13.722;2023-05-16T05:01:19;12.60;99.90
48264;DHT22;34086;51.076;13.722;2023-05-16T05:02:20;12.70;99.90
48264;DHT22;34086;51.076;13.722;2023-05-16T05:03:21;12.70;99.90
48264;DHT22;34086;51.076;13.722;2023-05-16T05:04:21;12.70;99.90
48264;DHT22;34086;51.076;13.722;2023-05-16T05:05:22;12.70;99.90
48264;DHT22;34086;51.076;13.722;2023-05-16T05:06:23;12.70;99.90
48264;DHT22;34086;51.076;13.722;2023-05-16T05:07:23;12.70;99.90
48264;DHT22;34086;51.076;13.722;2023-05-16T05:08:27;12.70;99.90
48264;DHT22;34086;51.076;13.722;2023-05-16T05:09:27;12.70;99.90
48264;DHT22;34086;51.076;13.722;2023-05-16T05:10:28;12.70;99.90
48264;DHT22;34086;51.076;13.722;2023-05-16T05:11:31;12.70;99.90
48264;DHT22;34086;51.076;13.722;2023-05-16T05:12:32;12.70;99.90
48264;DHT22;34086;51.076;13.722;2023-05-16T05:13:32;12.70;99.90
48264;DHT22;34086;51.076;13.722;2023-05-16T05:14:33;12.70;99.90
48264;DHT22;34086;51.076;13.722;2023-05-16T05:15:34;12.70;99.90
48264;DHT22;34086;51.076;13.722;2023-05-16T05:16:35;12.70;99.90
48264;DHT22;34086;51.076;13.722;2023-05-16T05:17:39;12.80;99.90
48264;DHT22;34086;51.076;13.722;2023-05-16T05:18:39;12.70;99.90
48264;DHT22;34086;51.076;13.722;2023-05-16T05:19:40;12.70;99.90
48264;DHT22;34086;51.076;13.722;2023-05-16T05:20:40;12.70;99.90
48264;DHT22;34086;51.076;13.722;2023-05-16T05:21:41;12.60;99.90
48264;DHT22;34086;51.076;13.722;2023-05-16T05:22:42;12.50;99.90
48264;DHT22;34086;51.076;13.722;2023-05-16T05:23:42;12.40;99.90
48264;DHT22;34086;51.076;13.722;2023-05-16T05:24:43;12.40;99.90
48264;DHT22;34086;51.076;13.722;2023-05-16T05:25:43;12.30;99.90
48264;DHT22;34086;51.076;13.722;2023-05-16T05:26:44;12.20;99.90
48264;DHT22;34086;51.076;13.722;2023-05-16T05:27:44;12.20;99.90
48264;DHT22;34086;51.076;13.722;2023-05-16T05:28:45;12.10;99.90
48264;DHT22;34086;51.076;13.722;2023-05-16T05:29:46;12.10;99.90
48264;DHT22;34086;51.076;13.722;2023-05-16T05:30:46;12.10;99.90
48264;DHT22;34086;51.076;13.722;2023-05-16T05:31:47;12.10;99.90
48264;DHT22;34086;51.076;13.722;2023-05-16T05:32:48;12.10;99.90
48264;DHT22;34086;51.076;13.722;2023-05-16T05:33:48;12.10;99.90
48264;DHT22;34086;51.076;13.722;2023-05-16T05:34:49;12.10;99.90
48264;DHT22;34086;51.076;13.722;2023-05-16T05:35:50;12.10;99.90
48264;DHT22;34086;51.076;13.722;2023-05-16T05:36:53;12.10;99.90
48264;DHT22;34086;51.076;13.722;2023-05-16T05:37:53;12.10;99.90
48264;DHT22;34086;51.076;13.722;2023-05-16T05:38:54;12.00;99.90
48264;DHT22;34086;51.076;13.722;2023-05-16T05:39:55;11.90;99.90
48264;DHT22;34086;51.076;13.722;2023-05-16T05:40:56;11.90;99.90
48264;DHT22;34086;51.076;13.722;2023-05-16T05:41:56;11.90;99.90
48264;DHT22;34086;51.076;13.722;2023-05-16T05:42:58;12.00;99.90
48264;DHT22;34086;51.076;13.722;2023-05-16T05:43:58;12.00;99.90
48264;DHT22;34086;51.076;13.722;2023-05-16T05:44:59;12.10;99.90
48264;DHT22;34086;51.076;13.722;2023-05-16T05:45:59;12.10;99.90
48264;DHT22;34086;51.076;13.722;2023-05-16T05:47:00;12.10;99.90
48264;DHT22;34086;51.076;13.722;2023-05-16T05:48:01;12.10;99.90
48264;DHT22;34086;51.076;13.722;2023-05-16T05:49:01;12.10;99.90
48264;DHT22;34086;51.076;13.722;2023-05-16T05:50:02;12.10;99.90
48264;DHT22;34086;51.076;13.722;2023-05-16T05:51:03;12.10;99.90
48264;DHT22;34086;51.076;13.722;2023-05-16T05:52:04;12.10;99.90
48264;DHT22;34086;51.076;13.722;2023-05-16T05:53:05;12.10;99.90
48264;DHT22;34086;51.076;13.722;2023-05-16T05:54:05;12.00;99.90
48264;DHT22;34086;51.076;13.722;2023-05-16T05:55:06;12.00;99.90
48264;DHT22;34086;51.076;13.722;2023-05-16T05:56:07;11.90;99.90
48264;DHT22;34086;51.076;13.722;2023-05-16T05:57:08;12.00;99.90
48264;DHT22;34086;51.076;13.722;2023-05-16T05:58:08;11.90;99.90
48264;DHT22;34086;51.076;13.722;2023-05-16T05:59:09;11.90;99.90
48264;DHT22;34086;51.076;13.722;2023-05-16T06:00:10;11.90;99.90
48264;DHT22;34086;51.076;13.722;2023-05-16T06:01:11;11.90;99.90
48264;DHT22;34086;51.076;13.722;2023-05-16T06:02:12;11.90;99.90
48264;DHT22;34086;51.076;13.722;2023-05-16T06:03:13;11.90;99.90
48264;DHT22;34086;51.076;13.722;2023-05-16T06:04:13;11.90;99.90
48264;DHT22;34086;51.076;13.722;2023-05-16T06:05:14;11.90;99.90
48264;DHT22;34086;51.076;13.722;2023-05-16T06:06:16;12.00;99.90
48264;DHT22;34086;51.076;13.722;2023-05-16T06:07:17;11.90;99.90
48264;DHT22;34086;51.076;13.722;2023-05-16T06:08:18;11.90;99.90
48264;DHT22;34086;51.076;13.722;2023-05-16T06:09:20;11.80;99.90
48264;DHT22;34086;51.076;13.722;2023-05-16T06:10:22;11.80;99.90
48264;DHT22;34086;51.076;13.722;2023-05-16T06:11:23;11.70;99.90
48264;DHT22;34086;51.076;13.722;2023-05-16T06:12:24;11.70;99.90
48264;DHT22;34086;51.076;13.722;2023-05-16T06:13:25;11.80;99.90
48264;DHT22;34086;51.076;13.722;2023-05-16T06:14:25;11.80;99.90
48264;DHT22;34086;51.076;13.722;2023-05-16T06:15:26;11.80;99.90
48264;DHT22;34086;51.076;13.722;2023-05-16T06:16:26;11.70;99.90
48264;DHT22;34086;51.076;13.722;2023-05-16T06:17:27;11.70;99.90
48264;DHT22;34086;51.076;13.722;2023-05-16T06:18:28;11.70;99.90
48264;DHT22;34086;51.076;13.722;2023-05-16T06:19:29;11.70;99.90
48264;DHT22;34086;51.076;13.722;2023-05-16T06:20:29;11.70;99.90
48264;DHT22;34086;51.076;13.722;2023-05-16T06:21:30;11.70;99.90
48264;DHT22;34086;51.076;13.722;2023-05-16T06:22:30;11.60;99.90
48264;DHT22;34086;51.076;13.722;2023-05-16T06:23:32;11.50;99.90
48264;DHT22;34086;51.076;13.722;2023-05-16T06:24:33;11.50;99.90
48264;DHT22;34086;51.076;13.722;2023-05-16T06:25:33;11.50;99.90
48264;DHT22;34086;51.076;13.722;2023-05-16T06:26:35;11.30;99.90
48264;DHT22;34086;51.076;13.722;2023-05-16T06:27:35;11.30;99.90
48264;DHT22;34086;51.076;13.722;2023-05-16T06:28:36;11.30;99.90
48264;DHT22;34086;51.076;13.722;2023-05-16T06:29:37;11.20;99.90
48264;DHT22;34086;51.076;13.722;2023-05-16T06:30:37;11.20;99.90